Terminal Aerodrome Forecast
Issued by NWS

Home | Current Version | Previous Version | Text Only | Print | Product List | Glossary On
Versions: 1 2 3 4 5 6 7 8 9 10 11 12 13
000
FTUS46 KLOX 301700 RRA
TAFOXR
TAF
KOXR 301743Z 3018/3118 08003KT P6SM BKN200
     FM302000 25010KT P6SM FEW010 SCT150 BKN250
     FM310300 25006KT P6SM SCT015 BKN250
     FM310900 VRB03KT P6SM SCT015 OVC025
     FM311300 09005KT 5SM BR OVC015=

USA.gov is the U.S. government's official web portal to all federal, state and local government web resources and services.